Time;durP1;ratioP1;P1;durP2;ratioP2;P2;SDS_P1;SDS_P2;PMS_P1;PMS_P2;Temp;Humidity;BMP_temperature;BMP_pressure;BME280_temperature;BME280_humidity;BME280_pressure;Samples;Min_cycle;Max_cycle;Signal;HPM_P1;HPM_P2
2022/12/11 00:01:18;;;;;;;;;19.00;14.33;;;;;2.94;71.55;100681.81;5132909;27;50730;-85
2022/12/11 00:03:44;;;;;;;;;16.00;13.25;;;;;3.17;71.99;100723.94;5132484;27;45265;-85
2022/12/11 00:06:13;;;;;;;;;20.50;18.50;;;;;3.14;71.71;100705.56;5132765;27;45563;-85
2022/12/11 00:08:39;;;;;;;;;18.75;14.75;;;;;3.03;71.77;100681.53;5132687;27;45464;-85
2022/12/11 00:11:08;;;;;;;;;20.25;15.50;;;;;3.18;71.74;100711.03;5132513;27;45052;-86
2022/12/11 00:13:33;;;;;;;;;16.25;12.25;;;;;3.04;71.72;100680.72;5132755;27;45083;-85
2022/12/11 00:15:59;;;;;;;;;11.75;11.75;;;;;2.98;71.35;100667.34;5113346;27;46373;-86
2022/12/11 00:18:24;;;;;;;;;16.75;13.25;;;;;2.71;71.77;100619.75;5126324;27;45297;-85
2022/12/11 00:20:49;;;;;;;;;15.50;11.50;;;;;2.89;71.64;100656.38;5112009;27;45329;-86
2022/12/11 00:23:15;;;;;;;;;13.33;12.33;;;;;3.07;72.13;100679.22;5112097;27;45158;-85
2022/12/11 00:25:44;;;;;;;;;15.00;12.00;;;;;3.16;71.97;100691.00;5114130;27;56028;-86
2022/12/11 00:28:15;;;;;;;;;15.25;14.75;;;;;3.09;71.76;100679.31;5120185;27;45134;-85
2022/12/11 00:30:41;;;;;;;;;15.00;11.50;;;;;2.96;71.88;100654.28;5115487;27;45134;-86
2022/12/11 00:33:08;;;;;;;;;13.25;13.00;;;;;3.12;71.90;100681.22;5131819;27;45112;-86
2022/12/11 00:35:37;;;;;;;;;16.00;14.25;;;;;3.01;71.81;100654.56;5113661;27;45565;-85
2022/12/11 00:38:03;;;;;;;;;14.25;12.50;;;;;2.97;71.81;100650.00;5114132;27;45172;-86
2022/12/11 00:40:28;;;;;;;;;12.33;11.00;;;;;3.05;72.13;100656.53;5102702;27;52581;-85
2022/12/11 00:42:53;;;;;;;;;18.00;15.67;;;;;2.95;71.67;100642.06;5115316;27;45115;-86
2022/12/11 00:45:19;;;;;;;;;13.50;11.25;;;;;3.22;71.76;100678.38;5124925;27;45565;-84
2022/12/11 00:47:44;;;;;;;;;7.00;6.67;;;;;2.94;71.20;100631.59;5110803;27;58128;-85
2022/12/11 00:50:09;;;;;;;;;9.67;9.67;;;;;2.92;71.37;100634.13;5130581;27;45384;-85
2022/12/11 00:52:34;;;;;;;;;14.33;11.33;;;;;3.00;71.24;100652.75;5114170;27;45213;-84
2022/12/11 00:55:00;;;;;;;;;16.00;11.33;;;;;2.99;71.67;100656.16;5129264;27;45129;-86
2022/12/11 00:57:25;;;;;;;;;10.33;8.00;;;;;3.16;71.44;100678.00;5132432;27;45191;-84
2022/12/11 00:59:50;;;;;;;;;10.33;9.00;;;;;3.07;71.14;100658.44;5109864;27;52982;-85
2022/12/11 01:02:15;;;;;;;;;8.33;6.67;;;;;2.92;71.42;100634.13;5121720;27;53107;-85
2022/12/11 01:04:41;;;;;;;;;9.00;8.00;;;;;2.86;70.72;100644.13;5131631;27;56724;-86
2022/12/11 01:07:06;;;;;;;;;8.67;7.67;;;;;2.87;70.98;100658.00;5112909;27;53152;-83
2022/12/11 01:12:15;;;;;;;;;9.75;8.00;;;;;2.63;71.47;100618.41;5115753;27;45254;-86
2022/12/11 01:14:41;;;;;;;;;11.00;8.67;;;;;2.85;71.59;100652.69;5121110;27;56616;-83
2022/12/11 01:17:06;;;;;;;;;8.00;6.33;;;;;2.95;71.52;100654.16;5110498;27;61604;-84
2022/12/11 01:19:34;;;;;;;;;11.00;10.33;;;;;2.89;71.36;100626.13;5109914;27;51845;-86
2022/12/11 01:21:59;;;;;;;;;9.50;9.50;;;;;2.68;71.44;100580.66;5110237;27;44958;-84
2022/12/11 01:24:24;;;;;;;;;14.00;11.00;;;;;3.12;71.48;100666.53;5091535;27;51527;-83
2022/12/11 01:26:50;;;;;;;;;15.33;11.67;;;;;3.12;71.50;100668.22;5109591;27;52220;-84
2022/12/11 01:29:15;;;;;;;;;11.75;11.25;;;;;2.97;71.73;100650.00;5110799;27;45273;-85
2022/12/11 01:31:40;;;;;;;;;11.33;11.33;;;;;3.07;71.61;100655.84;5129321;27;48087;-83
2022/12/11 01:34:06;;;;;;;;;9.00;7.67;;;;;3.13;71.42;100672.63;5124617;27;46117;-83
2022/12/11 01:36:31;;;;;;;;;8.25;7.75;;;;;2.96;71.53;100640.41;5110395;27;45131;-85
2022/12/11 01:38:56;;;;;;;;;9.00;8.67;;;;;2.92;71.47;100638.41;5110019;27;45705;-84
2022/12/11 01:41:22;;;;;;;;;8.75;7.75;;;;;3.04;70.91;100665.13;5110373;27;45074;-85
2022/12/11 01:44:27;;;;;;;;;11.00;9.00;;;;;3.03;71.16;100676.31;5091545;27;46092;-84
2022/12/11 01:46:53;;;;;;;;;4.00;4.00;;;;;2.80;71.10;100641.13;5109697;27;45405;-85
2022/12/11 01:49:21;;;;;;;;;5.75;5.75;;;;;2.96;71.37;100679.34;5110294;27;52692;-85
2022/12/11 01:51:57;;;;;;;;;10.50;9.00;;;;;2.97;71.22;100682.03;5091381;27;45350;-86
2022/12/11 01:54:26;;;;;;;;;10.00;8.75;;;;;2.81;71.21;100656.81;5109917;27;45724;-85
2022/12/11 01:56:56;;;;;;;;;10.75;8.50;;;;;2.73;70.87;100647.63;5091717;27;45495;-86
2022/12/11 01:59:25;;;;;;;;;11.25;10.50;;;;;2.88;70.95;100681.44;5091198;27;45004;-86
2022/12/11 02:01:59;;;;;;;;;10.00;8.25;;;;;2.78;71.12;100672.16;5091895;27;45125;-85
2022/12/11 02:04:26;;;;;;;;;10.50;7.75;;;;;2.75;71.25;100671.97;5121038;27;45878;-86
2022/12/11 02:06:52;;;;;;;;;8.50;6.25;;;;;2.65;71.14;100653.09;5119556;27;45114;-85
2022/12/11 02:09:31;;;;;;;;;9.25;7.00;;;;;2.76;71.30;100678.97;5111330;27;45142;-86
2022/12/11 02:12:15;;;;;;;;;8.25;7.00;;;;;2.74;71.15;100669.28;5120328;27;45265;-85
2022/12/11 02:15:20;;;;;;;;;8.25;8.25;;;;;2.63;71.19;100649.53;5108932;27;45684;-85
2022/12/11 02:18:03;;;;;;;;;8.50;6.25;;;;;2.70;71.53;100664.69;5122731;27;45380;-86
2022/12/11 02:20:31;;;;;;;;;9.00;8.00;;;;;2.68;71.75;100664.59;5129225;27;45116;-84
2022/12/11 02:23:10;;;;;;;;;13.00;9.25;;;;;2.62;71.66;100652.94;5109225;27;45367;-83
2022/12/11 02:25:41;;;;;;;;;8.25;7.25;;;;;2.72;71.71;100660.50;5130229;27;45842;-85
2022/12/11 02:28:18;;;;;;;;;10.00;7.50;;;;;2.51;71.68;100619.41;5130339;27;45172;-84
2022/12/11 02:30:50;;;;;;;;;6.75;5.00;;;;;2.75;71.61;100661.56;5111095;27;45008;-85
2022/12/11 02:33:20;;;;;;;;;9.00;7.25;;;;;2.64;71.09;100643.53;5130850;27;45183;-83
2022/12/11 02:35:48;;;;;;;;;8.75;7.50;;;;;2.65;71.53;100653.09;5110139;27;45287;-85
2022/12/11 02:38:17;;;;;;;;;8.75;7.75;;;;;2.54;71.11;100657.63;5110172;27;45153;-85
2022/12/11 02:40:46;;;;;;;;;8.50;8.50;;;;;2.44;71.78;100624.09;5129294;27;44996;-84
2022/12/11 02:43:15;;;;;;;;;10.50;10.50;;;;;2.64;71.50;100664.28;5130156;27;45130;-85
2022/12/11 02:45:44;;;;;;;;;5.00;5.00;;;;;2.57;71.71;100653.53;5129217;27;45675;-79
2022/12/11 02:48:12;;;;;;;;;9.00;8.00;;;;;2.11;71.14;100574.41;5130164;27;45494;-85
2022/12/11 02:50:43;;;;;;;;;4.25;4.25;;;;;2.56;71.61;100650.81;5130206;27;45083;-85
2022/12/11 02:53:12;;;;;;;;;7.00;6.50;;;;;2.55;71.69;100641.25;5130596;27;44991;-85
2022/12/11 02:55:40;;;;;;;;;6.75;4.75;;;;;2.39;71.59;100615.13;5130152;27;45776;-85
2022/12/11 02:58:15;;;;;;;;;6.75;6.00;;;;;2.55;71.74;100636.06;5130357;27;45682;-84
2022/12/11 03:00:40;;;;;;;;;5.00;4.75;;;;;2.54;71.88;100621.28;5110651;27;45077;-85
2022/12/11 03:03:06;;;;;;;;;8.33;7.33;;;;;2.39;71.79;100613.41;5129650;27;45190;-85
2022/12/11 03:05:31;;;;;;;;;5.75;5.00;;;;;2.15;71.49;100573.81;5130085;27;45173;-84
2022/12/11 03:07:56;;;;;;;;;4.00;4.00;;;;;2.43;71.37;100627.50;5130330;27;45314;-83
2022/12/11 03:10:22;;;;;;;;;4.33;4.33;;;;;2.42;71.30;100642.16;5129563;27;48873;-84
2022/12/11 03:12:51;;;;;;;;;7.25;5.00;;;;;2.39;71.24;100649.72;5129857;27;44892;-84
2022/12/11 03:15:20;;;;;;;;;4.75;4.75;;;;;2.35;71.42;100645.13;5125884;27;45450;-84
2022/12/11 03:18:01;;;;;;;;;4.00;2.50;;;;;2.28;71.17;100640.38;5109086;27;45019;-83
2022/12/11 03:20:42;;;;;;;;;4.25;4.25;;;;;2.00;71.25;100602.22;5109793;27;45103;-84
2022/12/11 03:23:25;;;;;;;;;2.00;1.00;;;;;2.00;71.63;100596.16;5121433;27;45140;-85
2022/12/11 03:25:58;;;;;;;;;4.00;4.00;;;;;2.23;71.44;100636.56;5110758;27;47410;-83
2022/12/11 03:28:39;;;;;;;;;4.00;4.00;;;;;2.21;71.97;100617.41;5113956;27;45120;-84
2022/12/11 03:31:11;;;;;;;;;8.00;7.00;;;;;2.26;71.70;100627.28;5093727;27;45161;-86
2022/12/11 03:33:40;;;;;;;;;4.75;4.75;;;;;2.24;71.78;100613.31;5109233;27;45120;-84
2022/12/11 03:36:11;;;;;;;;;5.00;5.00;;;;;2.19;71.69;100582.72;5123241;27;45625;-85
2022/12/11 03:38:42;;;;;;;;;5.50;5.50;;;;;2.12;71.46;100573.66;5108330;27;45360;-85
2022/12/11 03:41:12;;;;;;;;;9.00;7.00;;;;;2.23;71.51;100595.09;5090600;27;45171;-83
2022/12/11 03:43:39;;;;;;;;;6.25;6.00;;;;;2.25;71.43;100596.06;5109201;27;45002;-85
2022/12/11 03:46:07;;;;;;;;;5.75;4.50;;;;;2.24;71.45;100597.75;5108273;27;45384;-84
2022/12/11 03:48:36;;;;;;;;;9.00;8.00;;;;;2.36;71.68;100610.63;5108844;27;45074;-85
2022/12/11 03:51:05;;;;;;;;;4.25;4.25;;;;;2.43;71.39;100630.09;5108596;27;45065;-85
2022/12/11 03:53:33;;;;;;;;;8.00;7.75;;;;;2.29;71.51;100591.19;5108912;27;45081;-84
2022/12/11 03:56:00;;;;;;;;;8.00;6.50;;;;;2.42;71.31;100617.94;5108893;27;45401;-86
2022/12/11 03:58:26;;;;;;;;;5.00;5.00;;;;;2.47;71.42;100620.00;5108966;27;45149;-84
2022/12/11 04:00:51;;;;;;;;;6.33;6.33;;;;;2.38;71.38;100595.19;5108368;27;45130;-85
2022/12/11 04:03:16;;;;;;;;;7.33;7.33;;;;;2.46;71.55;100609.50;5109329;27;45134;-84
2022/12/11 04:05:45;;;;;;;;;9.25;7.00;;;;;2.46;71.63;100625.97;5107963;27;45329;-85
2022/12/11 04:08:11;;;;;;;;;8.00;7.25;;;;;2.40;71.57;100609.13;5108351;27;45536;-84
2022/12/11 04:10:37;;;;;;;;;8.25;8.00;;;;;2.38;71.44;100606.44;5108855;27;45265;-84
2022/12/11 04:13:02;;;;;;;;;8.00;8.00;;;;;2.31;71.62;100599.94;5108425;27;45165;-85
2022/12/11 04:15:27;;;;;;;;;10.25;8.50;;;;;2.23;71.72;100585.59;5107657;27;45227;-84
2022/12/11 04:26:10;;;;;;;;;8.00;7.00;;;;;2.06;71.65;100560.25;5128616;27;45099;-81
2022/12/11 04:28:36;;;;;;;;;9.75;8.50;;;;;2.25;71.68;100583.09;5132494;27;45419;-85
2022/12/11 04:31:02;;;;;;;;;8.50;8.00;;;;;2.37;71.98;100596.00;5132074;27;45252;-86
2022/12/11 04:33:28;;;;;;;;;7.00;5.00;;;;;2.43;71.78;100611.94;5131504;27;45281;-85
2022/12/11 04:35:57;;;;;;;;;10.75;7.75;;;;;2.35;71.80;100590.69;5120927;27;45270;-86
2022/12/11 04:38:22;;;;;;;;;8.25;7.50;;;;;2.36;71.68;100604.53;5114715;27;45338;-85
2022/12/11 04:40:47;;;;;;;;;7.00;6.33;;;;;2.31;71.63;100604.22;5111781;27;44965;-84
2022/12/11 04:43:13;;;;;;;;;5.67;5.67;;;;;2.25;71.42;100598.66;5124078;27;53262;-84
2022/12/11 04:45:38;;;;;;;;;5.00;4.50;;;;;2.22;71.46;100588.13;5091665;27;48338;-85
2022/12/11 04:48:04;;;;;;;;;7.00;7.00;;;;;2.19;71.90;100595.69;5118446;27;61773;-86
2022/12/11 04:50:29;;;;;;;;;6.25;6.00;;;;;2.11;71.66;100573.53;5132102;27;45154;-85
2022/12/11 04:52:55;;;;;;;;;8.00;7.75;;;;;2.13;71.67;100583.22;5131636;27;45039;-83
2022/12/11 04:55:20;;;;;;;;;9.00;8.00;;;;;2.11;72.08;100576.13;5132231;27;45879;-85
2022/12/11 04:57:46;;;;;;;;;11.00;8.00;;;;;2.12;72.04;100573.66;5131405;27;45077;-85
2022/12/11 05:00:11;;;;;;;;;10.33;8.00;;;;;1.83;72.13;100524.19;5112640;27;45059;-85
2022/12/11 05:02:38;;;;;;;;;9.25;7.75;;;;;2.13;72.11;100571.94;5132048;27;44991;-84
2022/12/11 05:05:05;;;;;;;;;8.75;8.00;;;;;2.21;72.15;100576.81;5131676;27;45552;-84
2022/12/11 05:07:30;;;;;;;;;10.25;7.50;;;;;2.17;71.84;100574.84;5131750;27;45365;-84
2022/12/11 05:09:56;;;;;;;;;8.00;7.00;;;;;2.14;71.91;100578.94;5131650;27;45132;-85
2022/12/11 05:12:21;;;;;;;;;9.50;8.00;;;;;2.11;71.95;100573.53;5132036;27;45145;-84
2022/12/11 05:14:46;;;;;;;;;7.00;7.00;;;;;1.85;72.20;100536.44;5130772;27;55026;-85
2022/12/11 05:17:12;;;;;;;;;6.33;6.33;;;;;1.97;72.14;100534.66;5131528;27;46314;-84
2022/12/11 05:19:37;;;;;;;;;8.00;7.00;;;;;2.25;72.35;100573.63;5131616;27;45386;-84
2022/12/11 05:22:03;;;;;;;;;5.00;5.00;;;;;2.31;72.11;100568.81;5131212;27;45151;-83
2022/12/11 05:24:28;;;;;;;;;6.50;2.50;;;;;2.14;71.95;100529.66;5131769;27;45138;-84
2022/12/11 05:26:53;;;;;;;;;8.33;8.33;;;;;2.38;71.79;100575.31;5131189;27;54417;-85
2022/12/11 05:29:18;;;;;;;;;12.00;8.67;;;;;2.32;72.11;100559.38;5131134;27;45181;-84
2022/12/11 05:31:44;;;;;;;;;4.00;4.00;;;;;2.39;72.13;100569.34;5131012;27;50287;-84
2022/12/11 05:34:09;;;;;;;;;8.33;7.00;;;;;2.19;71.72;100541.22;5131321;27;45098;-84
2022/12/11 05:36:34;;;;;;;;;7.00;7.00;;;;;2.14;71.67;100538.34;5124839;27;45301;-85
2022/12/11 05:39:00;;;;;;;;;8.50;8.50;;;;;2.34;71.83;100570.75;5110577;27;45052;-85
2022/12/11 05:41:30;;;;;;;;;13.00;11.00;;;;;2.33;71.91;100572.44;5090892;27;45222;-85
2022/12/11 05:43:55;;;;;;;;;13.50;13.50;;;;;2.08;71.58;100532.78;5110229;27;45059;-84
2022/12/11 05:46:28;;;;;;;;;10.50;9.75;;;;;2.12;71.69;100549.41;5110828;27;45386;-84
2022/12/11 05:48:57;;;;;;;;;15.50;13.50;;;;;2.24;71.65;100576.13;5110183;27;45169;-84
2022/12/11 05:51:23;;;;;;;;;12.50;11.00;;;;;2.21;71.60;100575.91;5092135;27;45239;-84
2022/12/11 05:53:50;;;;;;;;;15.50;13.00;;;;;2.19;71.83;100574.94;5109671;27;45317;-85
2022/12/11 05:56:30;;;;;;;;;15.50;12.75;;;;;2.01;71.94;100540.94;5110575;27;44977;-84
2022/12/11 05:58:58;;;;;;;;;12.00;11.00;;;;;1.87;71.84;100519.28;5091156;27;45159;-84
2022/12/11 06:01:29;;;;;;;;;11.75;11.00;;;;;2.20;71.93;100571.53;5110221;27;45103;-85
2022/12/11 06:03:56;;;;;;;;;15.00;11.50;;;;;2.04;71.72;100541.13;5109828;27;45170;-85
2022/12/11 06:06:22;;;;;;;;;15.50;13.75;;;;;2.16;71.86;100572.13;5109936;27;44981;-85
2022/12/11 06:08:55;;;;;;;;;17.50;14.75;;;;;2.18;71.85;100566.25;5109026;27;45033;-82
2022/12/11 06:11:21;;;;;;;;;14.75;12.50;;;;;2.20;71.71;100564.66;5110041;27;45195;-85
2022/12/11 06:13:47;;;;;;;;;12.50;11.25;;;;;2.17;71.87;100543.75;5109298;27;45397;-81
2022/12/11 06:16:15;;;;;;;;;14.00;11.00;;;;;2.19;71.69;100551.59;5109554;27;45055;-82
2022/12/11 06:18:43;;;;;;;;;17.00;15.75;;;;;2.20;71.49;100556.88;5091385;27;45045;-85
2022/12/11 06:21:21;;;;;;;;;12.25;11.25;;;;;2.19;71.42;100561.97;5109582;27;45196;-85
2022/12/11 06:23:48;;;;;;;;;17.25;14.00;;;;;2.11;71.76;100568.34;5110833;27;45931;-84
2022/12/11 06:26:14;;;;;;;;;14.25;12.50;;;;;2.12;71.76;100554.56;5109826;27;45389;-85
2022/12/11 06:28:40;;;;;;;;;16.75;14.75;;;;;2.00;71.82;100533.97;5108481;27;45140;-84
2022/12/11 06:31:06;;;;;;;;;14.75;13.50;;;;;2.11;71.68;100547.59;5128179;27;45130;-80
2022/12/11 06:33:32;;;;;;;;;17.25;13.00;;;;;2.06;71.51;100536.94;5131577;27;45532;-83
2022/12/11 06:36:05;;;;;;;;;19.25;15.75;;;;;1.94;71.78;100518.91;5111951;27;45058;-83
2022/12/11 06:38:31;;;;;;;;;18.00;17.75;;;;;2.08;71.57;100547.44;5111880;27;45513;-82
2022/12/11 06:40:58;;;;;;;;;25.00;18.75;;;;;1.98;71.94;100528.69;5127860;27;44923;-85
2022/12/11 06:43:23;;;;;;;;;20.50;19.75;;;;;2.10;71.83;100536.34;5131941;27;45126;-86
2022/12/11 06:45:49;;;;;;;;;18.75;17.75;;;;;2.11;72.11;100540.72;5128318;27;45308;-83
2022/12/11 06:48:14;;;;;;;;;19.75;19.75;;;;;2.07;71.69;100541.34;5129908;27;45063;-83
2022/12/11 06:50:40;;;;;;;;;22.25;18.25;;;;;2.02;71.70;100525.50;5123201;27;45447;-85
2022/12/11 06:53:05;;;;;;;;;23.33;20.67;;;;;2.11;71.93;100543.31;5113961;27;67904;-85
2022/12/11 06:55:34;;;;;;;;;24.50;20.50;;;;;1.88;71.59;100494.31;5115148;27;45001;-85
2022/12/11 06:58:00;;;;;;;;;22.00;18.25;;;;;1.85;71.55;100488.91;5089531;27;45129;-85
2022/12/11 07:00:26;;;;;;;;;21.00;17.50;;;;;1.90;71.57;100496.19;5108811;27;45126;-84
2022/12/11 07:02:51;;;;;;;;;21.25;17.75;;;;;1.85;71.63;100499.28;5107957;27;46302;-85
2022/12/11 07:05:16;;;;;;;;;26.00;21.67;;;;;1.82;71.52;100492.19;5108366;27;50440;-84
2022/12/11 07:07:42;;;;;;;;;24.00;23.50;;;;;1.90;71.64;100501.38;5108874;27;45201;-84
2022/12/11 07:10:08;;;;;;;;;25.00;21.00;;;;;2.04;71.63;100523.00;5115615;27;45077;-84
2022/12/11 07:12:33;;;;;;;;;23.00;17.50;;;;;2.12;71.76;100533.84;5117226;27;45221;-85
2022/12/11 07:14:58;;;;;;;;;19.67;19.00;;;;;1.88;71.32;100491.72;5110300;27;58497;-84
2022/12/11 07:17:23;;;;;;;;;21.00;16.67;;;;;1.88;71.15;100497.78;5111425;27;57730;-86
2022/12/11 07:19:49;;;;;;;;;22.00;21.00;;;;;1.99;71.49;100517.50;5122121;27;45146;-84
2022/12/11 07:22:14;;;;;;;;;19.33;18.00;;;;;1.96;71.52;100513.81;5088791;27;69829;-85
2022/12/11 07:24:39;;;;;;;;;24.75;22.50;;;;;2.07;71.16;100533.56;5107477;27;53962;-84
2022/12/11 07:27:05;;;;;;;;;24.00;21.67;;;;;2.11;71.46;100537.25;5108068;27;56297;-85
2022/12/11 07:29:30;;;;;;;;;16.33;15.00;;;;;1.96;71.37;100514.72;5108637;27;45049;-84
2022/12/11 07:31:55;;;;;;;;;21.67;20.33;;;;;1.88;71.19;100510.75;5123011;27;45103;-85
2022/12/11 07:34:20;;;;;;;;;19.00;18.00;;;;;1.87;71.19;100511.50;5120574;27;55997;-85
2022/12/11 07:36:46;;;;;;;;;24.00;20.00;;;;;2.03;70.98;100545.44;5106762;27;45111;-85
2022/12/11 07:39:11;;;;;;;;;24.33;17.33;;;;;2.08;71.22;100550.91;5107943;27;45222;-85
2022/12/11 07:41:37;;;;;;;;;19.75;17.50;;;;;1.97;71.01;100541.53;5107826;27;45994;-84
2022/12/11 07:44:03;;;;;;;;;19.75;17.25;;;;;2.03;71.17;100557.50;5118677;27;45155;-87
2022/12/11 07:46:30;;;;;;;;;17.25;15.50;;;;;1.98;71.36;100544.22;5128807;27;45149;-85
2022/12/11 07:48:55;;;;;;;;;20.25;18.50;;;;;2.02;70.94;100547.91;5108465;27;45247;-86
2022/12/11 07:51:26;;;;;;;;;19.00;17.50;;;;;2.10;71.23;100551.91;5113264;27;45742;-85
2022/12/11 07:54:00;;;;;;;;;27.00;21.25;;;;;1.96;70.91;100534.56;5105913;27;45433;-86
2022/12/11 07:56:27;;;;;;;;;19.00;17.00;;;;;2.10;71.27;100545.81;5112679;27;45229;-86
2022/12/11 07:58:53;;;;;;;;;19.50;17.00;;;;;2.14;71.24;100543.53;5119438;27;44966;-85
2022/12/11 08:01:22;;;;;;;;;17.25;16.75;;;;;1.98;70.95;100523.50;5120697;27;45302;-85
2022/12/11 08:03:48;;;;;;;;;23.75;18.25;;;;;2.10;70.70;100538.03;5128495;27;45328;-86
2022/12/11 08:06:13;;;;;;;;;20.25;18.00;;;;;2.02;70.82;100525.50;5133237;27;45004;-85
2022/12/11 08:08:40;;;;;;;;;23.50;22.75;;;;;2.05;70.49;100540.34;5122995;27;45523;-84
2022/12/11 08:11:09;;;;;;;;;21.00;20.50;;;;;2.09;70.35;100551.81;5111420;27;45521;-86
2022/12/11 08:13:34;;;;;;;;;22.50;18.50;;;;;1.99;70.55;100540.84;5110455;27;45195;-84
2022/12/11 08:16:05;;;;;;;;;20.50;19.00;;;;;2.04;70.55;100551.50;5094014;27;45124;-84
2022/12/11 08:18:32;;;;;;;;;12.25;12.00;;;;;1.97;70.55;100544.09;5088994;27;45121;-84
2022/12/11 08:20:57;;;;;;;;;21.00;17.00;;;;;2.05;70.67;100554.19;5071788;27;45717;-86
2022/12/11 08:23:23;;;;;;;;;21.67;18.00;;;;;1.92;70.53;100528.28;5072457;27;48062;-86
2022/12/11 08:25:48;;;;;;;;;21.00;18.67;;;;;1.88;70.83;100518.53;5071907;28;45340;-88
2022/12/11 08:28:14;;;;;;;;;17.75;17.50;;;;;2.12;70.46;100558.09;5072280;28;45733;-85
2022/12/11 08:30:39;;;;;;;;;18.33;17.00;;;;;2.14;70.51;100555.59;5071667;27;46432;-83
2022/12/11 08:33:05;;;;;;;;;20.00;17.50;;;;;2.16;70.38;100560.06;5071861;27;45446;-83
2022/12/11 08:35:30;;;;;;;;;23.50;21.50;;;;;2.19;70.60;100559.38;5082441;27;45634;-84
2022/12/11 08:37:56;;;;;;;;;15.00;15.00;;;;;2.20;70.07;100553.38;5072032;27;45489;-81
2022/12/11 08:40:21;;;;;;;;;17.00;17.00;;;;;2.17;70.30;100560.97;5072608;28;45863;-85
2022/12/11 08:42:46;;;;;;;;;17.33;15.00;;;;;2.13;70.10;100559.00;5053493;27;56098;-83
2022/12/11 08:45:12;;;;;;;;;22.33;21.00;;;;;2.10;70.17;100548.41;5072023;27;45473;-81
2022/12/11 08:47:37;;;;;;;;;17.50;17.00;;;;;1.95;69.98;100523.28;5053698;28;45820;-84
2022/12/11 08:50:03;;;;;;;;;21.00;18.00;;;;;1.97;70.32;100525.97;5071194;28;45921;-82
2022/12/11 08:52:30;;;;;;;;;23.75;20.50;;;;;2.14;70.34;100553.00;5073264;27;45426;-84
2022/12/11 08:54:57;;;;;;;;;20.75;19.50;;;;;2.01;69.94;100522.78;5071596;27;45828;-82
2022/12/11 08:57:22;;;;;;;;;21.25;19.25;;;;;2.16;70.02;100548.81;5053864;28;46145;-82
2022/12/11 08:59:47;;;;;;;;;17.67;14.33;;;;;2.24;70.03;100555.38;5071670;28;46159;-84
2022/12/11 09:02:12;;;;;;;;;16.33;16.33;;;;;2.27;69.77;100550.41;5052775;28;56220;-85
2022/12/11 09:04:38;;;;;;;;;21.50;18.25;;;;;2.12;69.46;100526.06;5071158;28;45424;-83
2022/12/11 09:07:03;;;;;;;;;21.75;18.75;;;;;2.13;69.26;100530.47;5071627;28;45744;-85
2022/12/11 09:09:28;;;;;;;;;19.67;17.67;;;;;2.27;69.53;100564.28;5082522;27;59090;-85
2022/12/11 09:11:54;;;;;;;;;18.00;18.00;;;;;2.28;69.54;100559.97;5091632;27;45898;-86
2022/12/11 09:14:20;;;;;;;;;20.00;18.25;;;;;2.12;69.97;100529.59;5084271;27;45552;-86
2022/12/11 09:16:45;;;;;;;;;33.75;33.00;;;;;2.35;69.79;100549.19;5070839;28;45593;-87
2022/12/11 09:19:13;;;;;;;;;25.00;21.00;;;;;2.45;69.70;100567.13;5071322;28;46126;-86
2022/12/11 09:21:39;;;;;;;;;24.25;21.50;;;;;2.10;69.45;100504.34;5071347;28;45370;-86
2022/12/11 09:24:04;;;;;;;;;22.00;19.75;;;;;2.20;69.76;100514.50;5071783;27;45524;-86
2022/12/11 09:26:30;;;;;;;;;23.75;21.25;;;;;2.45;69.46;100558.44;5071362;28;45729;-86
2022/12/11 09:28:56;;;;;;;;;19.25;17.75;;;;;2.50;69.56;100559.63;5071101;28;45667;-86
2022/12/11 09:31:25;;;;;;;;;22.50;22.00;;;;;2.46;69.58;100542.97;5071393;28;45448;-86
2022/12/11 09:33:53;;;;;;;;;24.50;19.50;;;;;2.51;69.20;100559.75;5074619;27;45405;-86
2022/12/11 09:36:20;;;;;;;;;22.75;21.25;;;;;2.25;69.55;100523.47;5073940;27;45417;-84
2022/12/11 09:38:46;;;;;;;;;23.75;22.75;;;;;2.32;69.30;100533.44;5072040;27;47675;-86
2022/12/11 09:41:21;;;;;;;;;19.75;19.50;;;;;2.52;69.46;100569.31;5072798;27;45627;-87
2022/12/11 09:44:02;;;;;;;;;17.50;16.25;;;;;2.53;69.11;100570.22;5072674;27;45541;-86
2022/12/11 09:46:28;;;;;;;;;19.50;18.25;;;;;2.26;68.65;100538.22;5073369;27;45998;-87
2022/12/11 09:48:54;;;;;;;;;14.50;14.50;;;;;2.27;68.72;100534.84;5091268;27;46422;-86
2022/12/11 09:51:29;;;;;;;;;20.75;18.25;;;;;2.49;68.91;100579.50;5083884;27;45442;-85
2022/12/11 09:53:58;;;;;;;;;21.50;20.50;;;;;2.39;68.94;100558.97;5078770;27;45638;-86
2022/12/11 09:56:34;;;;;;;;;22.00;20.00;;;;;2.46;68.56;100575.78;5090654;27;45732;-84
2022/12/11 09:59:26;;;;;;;;;25.75;21.25;;;;;2.37;69.10;100562.28;5088912;28;45745;-86
2022/12/11 10:02:10;;;;;;;;;17.75;17.75;;;;;2.49;68.72;100578.59;5089198;27;45485;-82
2022/12/11 10:04:54;;;;;;;;;23.00;18.00;;;;;2.52;69.16;100565.84;5096961;27;45193;-85
2022/12/11 10:07:34;;;;;;;;;23.75;23.75;;;;;2.50;69.02;100557.03;5102039;27;45431;-86
2022/12/11 10:10:08;;;;;;;;;21.75;19.00;;;;;2.53;68.86;100541.69;5107802;27;45184;-85
2022/12/11 10:12:57;;;;;;;;;16.00;14.00;;;;;2.72;68.60;100561.91;5094797;27;45609;-85
2022/12/11 10:15:44;;;;;;;;;19.25;18.00;;;;;2.69;68.40;100564.28;5100487;27;45522;-82
2022/12/11 10:18:15;;;;;;;;;18.00;17.00;;;;;2.64;68.63;100556.22;5090949;27;44964;-83
2022/12/11 10:20:41;;;;;;;;;20.50;17.50;;;;;2.60;68.54;100543.84;5118644;27;45708;-83
2022/12/11 10:23:14;;;;;;;;;15.25;14.75;;;;;2.57;68.54;100531.59;5110111;27;45096;-83
2022/12/11 10:25:44;;;;;;;;;23.00;20.25;;;;;2.63;68.45;100544.06;5108064;27;45044;-83
2022/12/11 10:28:15;;;;;;;;;16.00;14.75;;;;;2.52;68.40;100527.81;5124582;27;44875;-82
2022/12/11 10:30:54;;;;;;;;;17.25;17.00;;;;;2.71;68.35;100554.91;5125823;27;45973;-83
2022/12/11 10:33:59;;;;;;;;;18.25;17.50;;;;;2.48;68.42;100531.03;5125359;27;45453;-82
2022/12/11 10:36:30;;;;;;;;;24.75;22.25;;;;;2.68;68.60;100549.53;5107532;27;45289;-86
2022/12/11 10:38:56;;;;;;;;;22.50;20.00;;;;;2.68;68.08;100552.13;5104865;27;45190;-81
2022/12/11 10:41:28;;;;;;;;;28.50;23.25;;;;;2.63;68.28;100531.09;5115082;27;45669;-81
2022/12/11 10:43:53;;;;;;;;;20.75;18.25;;;;;2.72;68.31;100548.94;5129373;27;45104;-82
2022/12/11 10:46:22;;;;;;;;;19.00;18.25;;;;;2.74;68.25;100540.44;5100690;27;45326;-80
2022/12/11 10:48:52;;;;;;;;;18.75;17.25;;;;;2.73;68.13;100523.06;5109031;27;45311;-82
2022/12/11 10:51:18;;;;;;;;;29.25;22.50;;;;;2.46;68.18;100485.91;5122106;27;45971;-82
2022/12/11 10:53:50;;;;;;;;;17.50;17.50;;;;;2.29;68.24;100450.25;5108752;27;45090;-85
2022/12/11 10:56:24;;;;;;;;;23.00;21.00;;;;;2.07;68.09;100403.97;5108755;27;45152;-86
2022/12/11 10:58:51;;;;;;;;;24.75;21.25;;;;;2.95;68.08;100539.94;5104455;27;45656;-83
2022/12/11 11:01:21;;;;;;;;;16.25;13.25;;;;;2.75;68.13;100477.34;5088541;27;48214;-84
2022/12/11 11:04:05;;;;;;;;;23.25;19.00;;;;;2.19;68.15;100354.56;5109526;27;45818;-84
2022/12/11 11:06:31;;;;;;;;;21.50;18.00;;;;;3.18;67.82;100525.78;5106282;27;45598;-84
2022/12/11 11:09:01;;;;;;;;;24.75;20.50;;;;;3.24;67.76;100519.25;5082328;27;45616;-84
2022/12/11 11:11:33;;;;;;;;;22.25;20.00;;;;;3.05;67.73;100473.13;5071456;27;46316;-85
2022/12/11 11:14:21;;;;;;;;;21.00;18.25;;;;;3.38;67.51;100508.78;5089121;27;46132;-84
2022/12/11 11:16:50;;;;;;;;;24.50;17.75;;;;;3.36;67.21;100524.28;5070387;27;45849;-85
2022/12/11 11:19:24;;;;;;;;;22.25;20.50;;;;;2.46;66.62;100387.34;5091999;27;45370;-84
2022/12/11 11:21:53;;;;;;;;;24.50;19.00;;;;;3.00;67.46;100463.25;5103660;27;45554;-84
2022/12/11 11:24:37;;;;;;;;;28.50;23.25;;;;;3.20;67.06;100491.31;5071636;27;45748;-83
2022/12/11 11:27:12;;;;;;;;;27.00;24.50;;;;;2.74;66.92;100389.91;5087089;27;45555;-84
2022/12/11 11:29:37;;;;;;;;;19.50;18.50;;;;;2.75;66.88;100390.81;5096755;27;45901;-83
2022/12/11 11:32:17;;;;;;;;;23.75;22.25;;;;;3.35;66.94;100471.44;5089942;27;46385;-84
2022/12/11 11:34:42;;;;;;;;;21.25;17.00;;;;;3.22;66.38;100436.88;5104142;27;45507;-83
2022/12/11 11:37:24;;;;;;;;;17.33;16.67;;;;;3.56;66.50;100502.09;5110993;27;45717;-84
2022/12/11 11:39:55;;;;;;;;;24.50;20.50;;;;;3.63;66.46;100509.41;5092933;27;45474;-85